Obelix — 7JAX — position and weather

sailwx.info

Track history (hours):
 
Tides and Currents Weather Stations Pressure Air Temp Water Temp Dewpoint Dewpoint Depression Visibility Wind Speed Wind Dir Waves Ship Positions

Obelix

Last reported at 2016-Aug-27 16:33 UTC. Time now 2016-Aug-27 22:16 UTC.
Position N 34°23' E 135°09'.

Length 74 m; draft 4 m.

Type: Tanker. MMSI: 432528000.

Date/timePositionNaut miles runAvg speedWind from/ knotsBaromVisibWave heightAir tempDewpointWater temp
2016-Aug-27 16:33N 34°23' E 135°09'0 0.0
2016-Aug-27 11:22N 34°23' E 135°09'7 9.2
2016-Aug-27 10:33N 34°30' E 135°06'11 9.9
2016-Aug-27 09:30N 34°36' E 134°56'2 0.2
2016-Aug-26 23:28N 34°37' E 134°54'9 9.8
2016-Aug-26 22:33N 34°36' E 135°04'1211.1
2016-Aug-26 21:31N 34°24' E 135°03'1111.7
2016-Aug-26 20:33N 34°13' E 134°59'1212.0
2016-Aug-26 19:31N 34°01' E 134°60'214 4.4
2016-Aug-24 19:15N 34°50' E 139°12'1911.3
2016-Aug-24 17:32N 34°51' E 139°36'2311.3
2016-Aug-24 15:32N 34°55' E 140°03'1310.9
2016-Aug-24 14:23N 35°02' E 140°15'2111.6
2016-Aug-24 12:32N 35°17' E 140°34'1313.0
2016-Aug-24 11:33N 35°27' E 140°43'1312.7
2016-Aug-24 10:32N 35°38' E 140°53'2210.8
2016-Aug-24 08:33N 35°58' E 140°43'5 4.6
2016-Aug-24 07:32N 35°54' E 140°41'0 0.0
2016-Aug-24 06:23N 35°54' E 140°41'0 0.0
2016-Aug-24 04:32N 35°54' E 140°41'0 0.0
2016-Aug-24 02:25N 35°54' E 140°41'6 6.5
2016-Aug-24 01:33N 35°59' E 140°43'1 0.3
2016-Aug-23 22:30N 35°60' E 140°43'1211.8
2016-Aug-23 21:31N 35°50' E 140°51'1111.0
2016-Aug-23 20:33N 35°40' E 140°55'1712.3
2016-Aug-23 19:11N 35°26' E 140°44'812.2
2016-Aug-23 18:31N 35°19' E 140°39'1411.9
2016-Aug-23 17:23N 35°08' E 140°29'1113.4
2016-Aug-23 16:33N 35°03' E 140°17'1513.3
2016-Aug-23 15:26N 34°55' E 140°01'1313.1
2016-Aug-23 14:28N 34°51' E 139°47'5912.0
2016-Aug-23 09:30N 34°33' E 138°38'18310.1
2016-Aug-22 15:23N 34°03' E 134°59'1511.7
2016-Aug-22 14:08N 34°18' E 134°59'610.4
2016-Aug-22 13:33N 34°23' E 135°03'6 2.1
2016-Aug-22 10:29N 34°23' E 135°11'0 0.0
2016-Aug-22 09:29N 34°23' E 135°11'0 0.0
2016-Aug-22 08:29N 34°23' E 135°11'0 0.0
2016-Aug-22 07:23N 34°23' E 135°11'0 0.0
2016-Aug-22 06:23N 34°23' E 135°11'0 0.0
2016-Aug-22 04:23N 34°23' E 135°11'0 0.1
2016-Aug-22 03:23N 34°23' E 135°11'0 0.0
2016-Aug-21 22:05N 34°23' E 135°11'0 0.0
2016-Aug-21 19:11N 34°23' E 135°11'0 0.0
2016-Aug-21 15:29N 34°23' E 135°11'0 0.0
2016-Aug-21 14:23N 34°23' E 135°11'0 0.1
2016-Aug-21 13:29N 34°23' E 135°11'0 0.0
2016-Aug-21 08:29N 34°23' E 135°11'0 0.0
2016-Aug-21 07:29N 34°23' E 135°11'0 0.0
2016-Aug-21 05:23N 34°23' E 135°11'4 4.6
2016-Aug-21 04:33N 34°27' E 135°11'1211.8
2016-Aug-21 03:33N 34°33' E 135°23'2 2.0
2016-Aug-21 02:31N 34°33' E 135°25'0 0.0
2016-Aug-21 01:31N 34°33' E 135°25'0 0.0
2016-Aug-21 00:25N 34°33' E 135°25'0 0.0
2016-Aug-20 23:31N 34°33' E 135°25'1 0.5
2016-Aug-20 22:33N 34°33' E 135°25'5 2.0
2016-Aug-20 20:10N 34°33' E 135°19'0 0.0
2016-Aug-20 18:16N 34°33' E 135°19'0 0.0
2016-Aug-20 12:28N 34°32' E 135°19'0 0.0
2016-Aug-20 11:28N 34°32' E 135°19'0 0.0
2016-Aug-20 10:28N 34°32' E 135°19'0 0.0
2016-Aug-20 09:28N 34°32' E 135°19'0 0.1
2016-Aug-20 08:28N 34°32' E 135°19'0 0.0
2016-Aug-20 07:28N 34°33' E 135°19'0 0.0
2016-Aug-20 06:28N 34°33' E 135°19'0 0.0
2016-Aug-20 05:28N 34°33' E 135°19'0 0.0
2016-Aug-20 04:28N 34°33' E 135°19'0 0.0
2016-Aug-20 03:28N 34°33' E 135°19'0 0.0
2016-Aug-20 02:22N 34°33' E 135°19'0 0.0
2016-Aug-20 01:22N 34°33' E 135°19'0 0.0
2016-Aug-20 00:28N 34°33' E 135°19'0 0.0
2016-Aug-19 23:28N 34°33' E 135°19'0 0.0
2016-Aug-19 22:22N 34°33' E 135°19'0 0.0
2016-Aug-19 21:28N 34°33' E 135°19'0 0.0
2016-Aug-19 20:28N 34°33' E 135°19'0 0.0
2016-Aug-19 18:28N 34°33' E 135°19'0 0.0
2016-Aug-19 17:28N 34°33' E 135°19'0 0.0
2016-Aug-19 15:22N 34°33' E 135°19'0 0.1
2016-Aug-19 14:28N 34°33' E 135°19'0 0.0
2016-Aug-19 13:28N 34°33' E 135°19'0 0.1
2016-Aug-19 12:28N 34°33' E 135°19'0 0.0
2016-Aug-19 11:28N 34°33' E 135°19'0 0.0
2016-Aug-19 10:28N 34°33' E 135°19'0 0.0
2016-Aug-19 09:22N 34°33' E 135°19'0 0.0
2016-Aug-19 08:28N 34°33' E 135°19'2 1.7
2016-Aug-19 07:34N 34°33' E 135°18'1614.6
2016-Aug-19 06:30N 34°37' E 134°59'  
Track history (hours):
 
Tides and Currents Weather Stations Pressure Air Temp Water Temp Dewpoint Dewpoint Depression Visibility Wind Speed Wind Dir Waves Ship Positions

Obelix

Last reported at 2016-Aug-27 16:33 UTC. Time now 2016-Aug-27 22:16 UTC.
Position N 34°23' E 135°09'.

Length 74 m; draft 4 m.

Type: Tanker. MMSI: 432528000.

Date/timePositionNaut miles runAvg speedWind from/ knotsBaromVisibWave heightAir tempDewpointWater temp
2016-Aug-27 16:33N 34°23' E 135°09'0 0.0
2016-Aug-27 11:22N 34°23' E 135°09'7 9.2
2016-Aug-27 10:33N 34°30' E 135°06'11 9.9
2016-Aug-27 09:30N 34°36' E 134°56'2 0.2
2016-Aug-26 23:28N 34°37' E 134°54'9 9.8
2016-Aug-26 22:33N 34°36' E 135°04'1211.1
2016-Aug-26 21:31N 34°24' E 135°03'1111.7
2016-Aug-26 20:33N 34°13' E 134°59'1212.0
2016-Aug-26 19:31N 34°01' E 134°60'214 4.4
2016-Aug-24 19:15N 34°50' E 139°12'1911.3
2016-Aug-24 17:32N 34°51' E 139°36'2311.3
2016-Aug-24 15:32N 34°55' E 140°03'1310.9
2016-Aug-24 14:23N 35°02' E 140°15'2111.6
2016-Aug-24 12:32N 35°17' E 140°34'1313.0
2016-Aug-24 11:33N 35°27' E 140°43'1312.7
2016-Aug-24 10:32N 35°38' E 140°53'2210.8
2016-Aug-24 08:33N 35°58' E 140°43'5 4.6
2016-Aug-24 07:32N 35°54' E 140°41'0 0.0
2016-Aug-24 06:23N 35°54' E 140°41'0 0.0
2016-Aug-24 04:32N 35°54' E 140°41'0 0.0
2016-Aug-24 02:25N 35°54' E 140°41'6 6.5
2016-Aug-24 01:33N 35°59' E 140°43'1 0.3
2016-Aug-23 22:30N 35°60' E 140°43'1211.8
2016-Aug-23 21:31N 35°50' E 140°51'1111.0
2016-Aug-23 20:33N 35°40' E 140°55'1712.3
2016-Aug-23 19:11N 35°26' E 140°44'812.2
2016-Aug-23 18:31N 35°19' E 140°39'1411.9
2016-Aug-23 17:23N 35°08' E 140°29'1113.4
2016-Aug-23 16:33N 35°03' E 140°17'1513.3
2016-Aug-23 15:26N 34°55' E 140°01'1313.1
2016-Aug-23 14:28N 34°51' E 139°47'5912.0
2016-Aug-23 09:30N 34°33' E 138°38'18310.1
2016-Aug-22 15:23N 34°03' E 134°59'1511.7
2016-Aug-22 14:08N 34°18' E 134°59'610.4
2016-Aug-22 13:33N 34°23' E 135°03'6 2.1
2016-Aug-22 10:29N 34°23' E 135°11'0 0.0
2016-Aug-22 09:29N 34°23' E 135°11'0 0.0
2016-Aug-22 08:29N 34°23' E 135°11'0 0.0
2016-Aug-22 07:23N 34°23' E 135°11'0 0.0
2016-Aug-22 06:23N 34°23' E 135°11'0 0.0
2016-Aug-22 04:23N 34°23' E 135°11'0 0.1
2016-Aug-22 03:23N 34°23' E 135°11'0 0.0
2016-Aug-21 22:05N 34°23' E 135°11'0 0.0
2016-Aug-21 19:11N 34°23' E 135°11'0 0.0
2016-Aug-21 15:29N 34°23' E 135°11'0 0.0
2016-Aug-21 14:23N 34°23' E 135°11'0 0.1
2016-Aug-21 13:29N 34°23' E 135°11'0 0.0
2016-Aug-21 08:29N 34°23' E 135°11'0 0.0
2016-Aug-21 07:29N 34°23' E 135°11'0 0.0
2016-Aug-21 05:23N 34°23' E 135°11'4 4.6
2016-Aug-21 04:33N 34°27' E 135°11'1211.8
2016-Aug-21 03:33N 34°33' E 135°23'2 2.0
2016-Aug-21 02:31N 34°33' E 135°25'0 0.0
2016-Aug-21 01:31N 34°33' E 135°25'0 0.0
2016-Aug-21 00:25N 34°33' E 135°25'0 0.0
2016-Aug-20 23:31N 34°33' E 135°25'1 0.5
2016-Aug-20 22:33N 34°33' E 135°25'5 2.0
2016-Aug-20 20:10N 34°33' E 135°19'0 0.0
2016-Aug-20 18:16N 34°33' E 135°19'0 0.0
2016-Aug-20 12:28N 34°32' E 135°19'0 0.0
2016-Aug-20 11:28N 34°32' E 135°19'0 0.0
2016-Aug-20 10:28N 34°32' E 135°19'0 0.0
2016-Aug-20 09:28N 34°32' E 135°19'0 0.1
2016-Aug-20 08:28N 34°32' E 135°19'0 0.0
2016-Aug-20 07:28N 34°33' E 135°19'0 0.0
2016-Aug-20 06:28N 34°33' E 135°19'0 0.0
2016-Aug-20 05:28N 34°33' E 135°19'0 0.0
2016-Aug-20 04:28N 34°33' E 135°19'0 0.0
2016-Aug-20 03:28N 34°33' E 135°19'0 0.0
2016-Aug-20 02:22N 34°33' E 135°19'0 0.0
2016-Aug-20 01:22N 34°33' E 135°19'0 0.0
2016-Aug-20 00:28N 34°33' E 135°19'0 0.0
2016-Aug-19 23:28N 34°33' E 135°19'0 0.0
2016-Aug-19 22:22N 34°33' E 135°19'0 0.0
2016-Aug-19 21:28N 34°33' E 135°19'0 0.0
2016-Aug-19 20:28N 34°33' E 135°19'0 0.0
2016-Aug-19 18:28N 34°33' E 135°19'0 0.0
2016-Aug-19 17:28N 34°33' E 135°19'0 0.0
2016-Aug-19 15:22N 34°33' E 135°19'0 0.1
2016-Aug-19 14:28N 34°33' E 135°19'0 0.0
2016-Aug-19 13:28N 34°33' E 135°19'0 0.1
2016-Aug-19 12:28N 34°33' E 135°19'0 0.0
2016-Aug-19 11:28N 34°33' E 135°19'0 0.0
2016-Aug-19 10:28N 34°33' E 135°19'0 0.0
2016-Aug-19 09:22N 34°33' E 135°19'0 0.0
2016-Aug-19 08:28N 34°33' E 135°19'2 1.7
2016-Aug-19 07:34N 34°33' E 135°18'1614.6
2016-Aug-19 06:30N 34°37' E 134°59'  

Dump ship's entire track history